Time;durP1;ratioP1;P1;durP2;ratioP2;P2;SDS_P1;SDS_P2;PMS_P1;PMS_P2;Temp;Humidity;BMP_temperature;BMP_pressure;BME280_temperature;BME280_humidity;BME280_pressure;Samples;Min_cycle;Max_cycle;Signal;HPM_P1;HPM_P2
2023/06/16 00:01:19;;;;;;;9.17;4.43;;;16.10;99.90;;;;;;5152769;27;20191;-64
2023/06/16 00:03:49;;;;;;;5.00;3.50;;;16.00;99.90;;;;;;5152651;27;20242;-66
2023/06/16 00:06:19;;;;;;;4.90;4.40;;;16.00;99.90;;;;;;5152318;27;20495;-64
2023/06/16 00:08:51;;;;;;;5.60;4.47;;;16.10;99.90;;;;;;5152381;27;20430;-65
2023/06/16 00:11:17;;;;;;;9.10;4.40;;;16.10;99.90;;;;;;5152382;27;20499;-64
2023/06/16 00:13:44;;;;;;;6.43;4.57;;;16.10;99.90;;;;;;5152247;27;20428;-64
2023/06/16 00:16:10;;;;;;;7.10;5.03;;;16.00;99.90;;;;;;5152057;27;20828;-64
2023/06/16 00:18:40;;;;;;;9.70;4.00;;;15.80;99.90;;;;;;5152161;27;20943;-65
2023/06/16 00:21:09;;;;;;;7.30;4.10;;;15.70;99.90;;;;;;5151984;27;20989;-64
2023/06/16 00:23:34;;;;;;;6.53;3.93;;;15.70;99.90;;;;;;5152125;27;21099;-64
2023/06/16 00:26:00;;;;;;;7.57;4.10;;;15.70;99.90;;;;;;5132867;27;20466;-64
2023/06/16 00:28:25;;;;;;;5.40;4.30;;;15.70;99.90;;;;;;5151688;27;20222;-64
2023/06/16 00:30:51;;;;;;;4.80;3.73;;;15.70;99.90;;;;;;5151722;27;20589;-64
2023/06/16 00:33:17;;;;;;;4.70;4.20;;;15.70;99.90;;;;;;5151696;27;20186;-64
2023/06/16 00:35:46;;;;;;;10.10;4.17;;;15.70;99.90;;;;;;5151765;27;20185;-65
2023/06/16 00:38:11;;;;;;;5.47;3.60;;;15.80;99.90;;;;;;5151464;27;20475;-64
2023/06/16 00:40:38;;;;;;;6.87;4.27;;;16.00;99.90;;;;;;5151309;27;20427;-64
2023/06/16 00:43:03;;;;;;;3.57;3.27;;;16.00;99.90;;;;;;5151305;27;20193;-65
2023/06/16 00:45:29;;;;;;;5.57;3.63;;;16.00;99.90;;;;;;5151364;27;20415;-64
2023/06/16 00:47:56;;;;;;;4.50;4.10;;;16.00;99.90;;;;;;5151169;27;20675;-64
2023/06/16 00:50:23;;;;;;;3.90;3.60;;;15.90;99.90;;;;;;5151094;27;20428;-66
2023/06/16 00:52:49;;;;;;;8.03;4.37;;;15.90;99.90;;;;;;5151149;27;20420;-65
2023/06/16 00:55:19;;;;;;;4.63;3.70;;;15.90;99.90;;;;;;5151245;27;20920;-64
2023/06/16 00:57:45;;;;;;;4.40;4.00;;;15.90;99.90;;;;;;5150947;27;20892;-65
2023/06/16 01:00:11;;;;;;;5.87;4.67;;;15.80;99.90;;;;;;5151078;27;20456;-65
2023/06/16 01:02:38;;;;;;;4.70;3.93;;;15.80;99.90;;;;;;5150892;27;20428;-65
2023/06/16 01:05:07;;;;;;;4.03;3.67;;;15.80;99.90;;;;;;5151041;27;20927;-65
2023/06/16 01:07:43;;;;;;;5.97;3.80;;;15.80;99.90;;;;;;5150897;27;20824;-63
2023/06/16 01:10:18;;;;;;;4.73;4.17;;;15.70;99.90;;;;;;5151015;27;21115;-65
2023/06/16 01:12:52;;;;;;;4.73;4.20;;;15.70;99.90;;;;;;5150662;27;21033;-64
2023/06/16 01:15:22;;;;;;;4.60;4.20;;;15.60;99.90;;;;;;5150847;27;20452;-64
2023/06/16 01:17:50;;;;;;;10.73;4.67;;;15.70;99.90;;;;;;5150538;27;20423;-64
2023/06/16 01:20:18;;;;;;;4.33;3.93;;;15.60;99.90;;;;;;5150444;27;20435;-64
2023/06/16 01:23:01;;;;;;;6.93;4.80;;;15.40;99.90;;;;;;5150584;27;20990;-65
2023/06/16 01:25:30;;;;;;;10.40;5.60;;;15.30;99.90;;;;;;5150879;27;20423;-65
2023/06/16 01:27:57;;;;;;;4.80;4.30;;;15.10;99.90;;;;;;5150469;27;20509;-65
2023/06/16 01:30:24;;;;;;;6.17;4.50;;;15.20;99.90;;;;;;5150601;27;20476;-65
2023/06/16 01:32:53;;;;;;;5.53;4.13;;;15.10;99.90;;;;;;5131660;27;20972;-65
2023/06/16 01:35:20;;;;;;;9.37;4.73;;;15.10;99.90;;;;;;5150482;27;20425;-64
2023/06/16 01:37:49;;;;;;;5.60;4.57;;;15.10;99.90;;;;;;5150522;27;20451;-64
2023/06/16 01:40:15;;;;;;;5.17;4.30;;;15.10;99.90;;;;;;5150364;27;20426;-64
2023/06/16 01:42:43;;;;;;;10.57;4.93;;;15.00;99.90;;;;;;5132000;27;20522;-64
2023/06/16 01:45:10;;;;;;;8.60;4.73;;;15.00;99.90;;;;;;5150244;27;20419;-65
2023/06/16 01:47:36;;;;;;;4.83;4.37;;;14.90;99.90;;;;;;5150467;27;20458;-64
2023/06/16 01:50:02;;;;;;;4.97;4.53;;;14.80;99.90;;;;;;5150338;27;20461;-64
2023/06/16 01:52:27;;;;;;;4.63;3.97;;;14.70;99.90;;;;;;5150432;27;20866;-65
2023/06/16 01:54:53;;;;;;;8.03;5.00;;;14.80;99.90;;;;;;5150205;27;20186;-65
2023/06/16 01:57:18;;;;;;;8.23;4.50;;;14.80;99.90;;;;;;5150197;27;20212;-65
2023/06/16 01:59:47;;;;;;;6.37;4.40;;;14.70;99.90;;;;;;5149932;27;20250;-65
2023/06/16 02:02:19;;;;;;;5.10;4.53;;;14.50;99.90;;;;;;5150333;27;20275;-64
2023/06/16 02:04:48;;;;;;;5.60;4.17;;;14.60;99.90;;;;;;5150322;27;20450;-65
2023/06/16 02:07:18;;;;;;;5.50;4.70;;;14.60;99.90;;;;;;5149847;27;20648;-65
2023/06/16 02:09:45;;;;;;;5.13;4.67;;;14.70;99.90;;;;;;5150096;27;20446;-64
2023/06/16 02:12:12;;;;;;;8.00;5.00;;;14.70;99.90;;;;;;5149977;27;20465;-63
2023/06/16 02:14:39;;;;;;;4.47;4.07;;;14.70;99.90;;;;;;5150026;27;21152;-64
2023/06/16 02:17:07;;;;;;;5.77;4.90;;;14.60;99.90;;;;;;5150509;27;20509;-63
2023/06/16 02:19:33;;;;;;;6.67;4.40;;;14.60;99.90;;;;;;5150067;27;20438;-63
2023/06/16 02:22:00;;;;;;;6.00;4.60;;;14.60;99.90;;;;;;5131432;27;20436;-64
2023/06/16 02:24:26;;;;;;;4.80;4.40;;;14.70;99.90;;;;;;5152146;27;20529;-63
2023/06/16 02:26:52;;;;;;;7.63;4.30;;;14.50;99.90;;;;;;5154102;27;21304;-64
2023/06/16 02:29:17;;;;;;;4.90;4.40;;;14.50;99.90;;;;;;5154051;27;20522;-65
2023/06/16 02:31:47;;;;;;;4.50;4.10;;;14.40;99.90;;;;;;5154303;27;20241;-64
2023/06/16 02:34:13;;;;;;;6.30;4.53;;;14.50;99.90;;;;;;5154118;27;20296;-64
2023/06/16 02:36:38;;;;;;;3.97;3.67;;;14.50;99.90;;;;;;5154288;27;20907;-64
2023/06/16 02:39:04;;;;;;;5.33;4.67;;;14.30;99.90;;;;;;5154288;27;20469;-63
2023/06/16 02:41:29;;;;;;;5.13;4.23;;;14.40;99.90;;;;;;5154108;27;20180;-63
2023/06/16 02:43:55;;;;;;;4.60;4.17;;;14.40;99.90;;;;;;5153627;27;20186;-63
2023/06/16 02:46:21;;;;;;;5.70;4.50;;;14.50;99.90;;;;;;5154007;27;20217;-63
2023/06/16 02:48:47;;;;;;;6.40;4.90;;;14.50;99.90;;;;;;5153756;27;20695;-63
2023/06/16 02:51:12;;;;;;;6.60;4.47;;;14.50;99.90;;;;;;5153989;27;20418;-64
2023/06/16 02:53:39;;;;;;;5.87;4.60;;;14.50;99.90;;;;;;5135138;27;20916;-63
2023/06/16 02:56:06;;;;;;;6.53;4.47;;;14.50;99.90;;;;;;5153799;27;20185;-63
2023/06/16 02:58:32;;;;;;;4.33;3.93;;;14.50;99.90;;;;;;5153518;27;20792;-64
2023/06/16 03:00:58;;;;;;;4.83;4.33;;;14.40;99.90;;;;;;5153706;27;20438;-63
2023/06/16 03:03:25;;;;;;;8.63;4.20;;;14.40;99.90;;;;;;5135172;27;20566;-65
2023/06/16 03:05:51;;;;;;;4.70;4.20;;;14.30;99.90;;;;;;5153590;27;20185;-65
2023/06/16 03:08:16;;;;;;;7.50;4.90;;;14.30;99.90;;;;;;5153442;27;20426;-64
2023/06/16 03:10:42;;;;;;;4.27;3.87;;;14.30;99.90;;;;;;5153558;27;20441;-66
2023/06/16 03:13:08;;;;;;;5.40;4.90;;;14.30;99.90;;;;;;5153448;27;20552;-64
2023/06/16 03:15:36;;;;;;;5.63;4.90;;;14.20;99.90;;;;;;5153634;27;20811;-65
2023/06/16 03:18:02;;;;;;;5.80;4.77;;;14.20;99.90;;;;;;5153572;27;20592;-64
2023/06/16 03:20:27;;;;;;;5.07;4.60;;;14.10;99.90;;;;;;5153524;27;20410;-64
2023/06/16 03:22:53;;;;;;;6.00;4.60;;;14.10;99.90;;;;;;5154012;27;20849;-64
2023/06/16 03:25:21;;;;;;;6.20;4.60;;;14.00;99.90;;;;;;5153636;27;20202;-64
2023/06/16 03:27:46;;;;;;;7.20;4.63;;;14.00;99.90;;;;;;5152581;27;20208;-66
2023/06/16 03:30:12;;;;;;;5.33;4.30;;;14.00;99.90;;;;;;5152513;27;20425;-65
2023/06/16 03:32:38;;;;;;;6.07;5.47;;;14.00;99.90;;;;;;5152614;27;20189;-64
2023/06/16 03:35:06;;;;;;;5.93;4.80;;;14.00;99.90;;;;;;5152198;27;20669;-64
2023/06/16 03:37:32;;;;;;;5.80;5.20;;;14.00;99.90;;;;;;5152564;27;20215;-64
2023/06/16 03:40:05;;;;;;;6.53;5.30;;;13.90;99.90;;;;;;5152461;27;20477;-64
2023/06/16 03:42:34;;;;;;;7.47;4.73;;;13.70;99.90;;;;;;5152562;27;20420;-64
2023/06/16 03:45:00;;;;;;;4.63;4.23;;;13.70;99.90;;;;;;5152423;27;20478;-64
2023/06/16 03:47:26;;;;;;;6.70;4.90;;;13.80;99.90;;;;;;5133768;27;20461;-65
2023/06/16 03:49:53;;;;;;;6.17;4.30;;;13.80;99.90;;;;;;5152102;27;20444;-63
2023/06/16 03:52:19;;;;;;;4.80;4.40;;;13.70;99.90;;;;;;5152155;27;20177;-63
2023/06/16 03:54:45;;;;;;;4.60;4.20;;;13.80;99.90;;;;;;5132853;27;20417;-63
2023/06/16 03:57:12;;;;;;;7.23;4.77;;;13.80;99.90;;;;;;5151514;27;20422;-64
2023/06/16 03:59:38;;;;;;;7.83;4.90;;;13.80;99.90;;;;;;5151647;27;20899;-63
2023/06/16 04:02:07;;;;;;;7.30;5.00;;;13.80;99.90;;;;;;5151521;27;20525;-63
2023/06/16 04:04:34;;;;;;;7.57;4.70;;;13.80;99.90;;;;;;5151362;27;20241;-63
2023/06/16 04:07:00;;;;;;;5.70;4.67;;;13.80;99.90;;;;;;5151267;27;20493;-64
2023/06/16 04:09:26;;;;;;;5.40;4.60;;;13.90;99.90;;;;;;5151180;27;20434;-63
2023/06/16 04:11:52;;;;;;;5.67;4.83;;;13.90;99.90;;;;;;5151088;27;20414;-63
2023/06/16 04:14:18;;;;;;;6.63;5.40;;;13.90;99.90;;;;;;5151228;27;20414;-63
2023/06/16 04:16:44;;;;;;;7.50;5.30;;;13.90;99.90;;;;;;5151108;27;20521;-63
2023/06/16 04:19:13;;;;;;;8.23;5.10;;;13.80;99.90;;;;;;5132739;27;20299;-63
2023/06/16 04:21:41;;;;;;;5.93;5.20;;;13.70;99.90;;;;;;5151033;27;20192;-63
2023/06/16 04:24:07;;;;;;;7.03;5.00;;;13.60;99.90;;;;;;5151029;27;20997;-64
2023/06/16 04:26:33;;;;;;;6.03;5.20;;;13.70;99.90;;;;;;5111937;27;1097766;-63
2023/06/16 04:29:03;;;;;;;6.97;4.60;;;13.70;99.90;;;;;;5151787;27;20616;-63
2023/06/16 04:31:31;;;;;;;6.37;4.70;;;13.70;99.90;;;;;;5151748;27;20185;-63
2023/06/16 04:33:58;;;;;;;4.90;4.30;;;13.70;99.90;;;;;;5151929;27;20902;-63
2023/06/16 04:36:25;;;;;;;6.30;5.07;;;13.70;99.90;;;;;;5152079;27;20418;-63
2023/06/16 04:38:51;;;;;;;5.33;4.40;;;13.80;99.90;;;;;;5151825;27;20445;-64
2023/06/16 04:41:17;;;;;;;7.17;4.80;;;13.90;99.90;;;;;;5151883;27;20529;-65
2023/06/16 04:43:42;;;;;;;6.23;5.20;;;13.90;99.90;;;;;;5151687;27;20504;-68
2023/06/16 04:46:08;;;;;;;5.37;4.83;;;14.00;99.90;;;;;;5150544;27;20180;-68
2023/06/16 04:48:34;;;;;;;6.03;4.40;;;13.90;99.90;;;;;;5151202;27;20669;-68
2023/06/16 04:50:59;;;;;;;6.13;3.70;;;13.80;99.90;;;;;;5132511;27;20189;-67
2023/06/16 04:53:26;;;;;;;7.80;4.80;;;13.90;99.90;;;;;;5132579;27;20666;-66
2023/06/16 04:55:51;;;;;;;5.80;4.20;;;14.10;99.90;;;;;;5151135;27;20179;-68
2023/06/16 04:58:17;;;;;;;5.10;4.47;;;14.20;99.90;;;;;;5150868;27;20434;-68
2023/06/16 05:00:43;;;;;;;8.30;4.73;;;14.50;99.90;;;;;;5150909;27;20187;-68
2023/06/16 05:03:09;;;;;;;5.83;4.93;;;14.70;99.90;;;;;;5150909;27;20184;-68
2023/06/16 05:05:34;;;;;;;6.97;4.60;;;14.90;99.90;;;;;;5132035;27;20176;-68
2023/06/16 05:08:00;;;;;;;5.37;4.23;;;15.20;99.90;;;;;;5150206;27;20848;-68
2023/06/16 05:10:26;;;;;;;6.20;4.90;;;15.40;99.90;;;;;;5150431;27;20185;-67
2023/06/16 05:12:51;;;;;;;3.97;3.63;;;15.70;99.90;;;;;;5131373;27;20189;-68
2023/06/16 05:15:17;;;;;;;6.63;4.40;;;15.90;99.90;;;;;;5150395;27;20185;-68
2023/06/16 05:17:43;;;;;;;4.97;4.47;;;16.10;99.90;;;;;;5150063;27;20261;-68
2023/06/16 05:20:09;;;;;;;5.30;4.60;;;16.20;99.90;;;;;;5131845;27;20186;-68
2023/06/16 05:22:34;;;;;;;6.90;4.33;;;16.40;99.90;;;;;;5150304;27;20192;-68
2023/06/16 05:25:00;;;;;;;5.57;3.77;;;16.70;99.90;;;;;;5150081;27;20542;-68
2023/06/16 05:27:26;;;;;;;8.37;4.83;;;16.80;99.90;;;;;;5150178;27;20215;-67
2023/06/16 05:29:52;;;;;;;8.07;4.13;;;17.00;99.90;;;;;;5149848;27;20199;-67
2023/06/16 05:32:22;;;;;;;6.27;4.53;;;17.20;99.90;;;;;;5149902;27;20183;-67
2023/06/16 05:34:50;;;;;;;4.90;4.47;;;17.30;99.90;;;;;;5149646;27;20422;-67
2023/06/16 05:37:17;;;;;;;9.73;4.20;;;17.50;99.90;;;;;;5130605;27;20571;-67
2023/06/16 05:39:43;;;;;;;6.43;4.70;;;17.70;99.90;;;;;;5149118;27;20462;-68
2023/06/16 05:42:14;;;;;;;8.97;4.63;;;17.80;99.90;;;;;;5130737;27;20933;-67
2023/06/16 05:44:43;;;;;;;9.60;5.23;;;17.90;99.90;;;;;;5149328;27;20515;-67
2023/06/16 05:47:10;;;;;;;11.80;5.40;;;17.80;99.90;;;;;;5130586;27;20504;-67
2023/06/16 05:49:36;;;;;;;5.20;4.70;;;17.70;99.90;;;;;;5149055;27;20442;-67
2023/06/16 05:52:02;;;;;;;6.23;5.63;;;17.80;99.90;;;;;;5148978;27;20412;-67
2023/06/16 05:54:31;;;;;;;6.60;4.80;;;17.80;99.90;;;;;;5130296;27;20423;-68
2023/06/16 05:56:57;;;;;;;5.90;5.30;;;17.80;99.90;;;;;;5148993;27;20909;-67
2023/06/16 05:59:24;;;;;;;5.70;5.10;;;18.00;99.90;;;;;;5148920;27;20518;-69
2023/06/16 06:01:49;;;;;;;5.23;4.50;;;18.10;99.90;;;;;;5130636;27;20283;-68
2023/06/16 06:04:19;;;;;;;5.30;4.27;;;18.30;99.90;;;;;;5149438;27;21211;-68
2023/06/16 06:06:44;;;;;;;5.47;4.63;;;18.50;99.90;;;;;;5130279;27;20216;-68
2023/06/16 06:09:10;;;;;;;7.37;4.60;;;18.60;99.90;;;;;;5149122;27;20439;-68
2023/06/16 06:11:36;;;;;;;5.87;4.47;;;18.90;99.90;;;;;;5129982;27;20184;-68
2023/06/16 06:14:01;;;;;;;6.17;4.63;;;19.00;99.90;;;;;;5148742;27;20176;-68
2023/06/16 06:16:27;;;;;;;8.50;4.90;;;19.10;99.90;;;;;;5148878;27;20180;-68
2023/06/16 06:18:53;;;;;;;6.77;5.70;;;19.30;99.90;;;;;;5148954;27;20220;-68
2023/06/16 06:21:19;;;;;;;11.93;5.43;;;19.50;99.90;;;;;;5148692;27;20191;-68
2023/06/16 06:23:44;;;;;;;8.60;5.80;;;19.70;99.90;;;;;;5149003;27;20695;-68
2023/06/16 06:26:10;;;;;;;6.83;5.57;;;19.80;99.90;;;;;;5148425;27;20455;-68
2023/06/16 06:28:36;;;;;;;5.63;4.10;;;19.90;99.90;;;;;;5129828;27;20603;-68
2023/06/16 06:31:01;;;;;;;10.50;4.47;;;19.90;99.90;;;;;;5112841;27;20977;-68
2023/06/16 06:33:27;;;;;;;5.10;4.60;;;20.00;99.90;;;;;;5148825;27;20275;-68
2023/06/16 06:35:53;;;;;;;6.10;4.63;;;20.20;99.90;;;;;;5130134;27;20191;-68
2023/06/16 06:38:18;;;;;;;5.87;4.40;;;20.30;99.90;;;;;;5148873;27;20445;-68
2023/06/16 06:40:44;;;;;;;6.07;5.47;;;20.40;99.90;;;;;;5149306;27;20660;-68
2023/06/16 06:43:11;;;;;;;10.40;5.00;;;20.70;99.90;;;;;;5130532;27;20286;-69
2023/06/16 06:45:36;;;;;;;7.93;5.43;;;20.80;99.90;;;;;;5149096;27;20179;-68
2023/06/16 06:48:02;;;;;;;9.40;5.20;;;20.90;99.90;;;;;;5148697;27;20461;-68
2023/06/16 06:50:28;;;;;;;4.97;4.50;;;21.00;99.90;;;;;;5148885;27;20184;-68
2023/06/16 06:52:53;;;;;;;9.30;5.13;;;21.10;99.90;;;;;;5148950;27;20190;-69
2023/06/16 06:55:20;;;;;;;5.20;4.30;;;21.10;99.90;;;;;;5148790;27;20205;-68
2023/06/16 06:57:47;;;;;;;5.47;4.07;;;21.20;99.90;;;;;;5148805;27;20209;-68
2023/06/16 07:00:14;;;;;;;10.97;5.30;;;21.30;99.90;;;;;;5129884;27;20490;-68
2023/06/16 07:02:41;;;;;;;5.30;4.00;;;21.30;99.90;;;;;;5130206;27;20410;-68
2023/06/16 07:05:08;;;;;;;5.03;4.20;;;21.40;99.90;;;;;;5130334;27;20449;-68
2023/06/16 07:07:34;;;;;;;11.43;4.23;;;21.60;99.90;;;;;;5130239;27;20510;-68
2023/06/16 07:09:59;;;;;;;5.97;4.27;;;21.60;99.90;;;;;;5148975;27;20522;-68
2023/06/16 07:12:25;;;;;;;3.60;3.30;;;21.60;99.90;;;;;;5151761;27;20417;-68
2023/06/16 07:14:51;;;;;;;5.00;4.17;;;21.70;99.90;;;;;;5133592;27;21008;-68
2023/06/16 07:17:16;;;;;;;6.33;4.83;;;21.80;99.90;;;;;;5133656;27;20202;-68
2023/06/16 07:19:42;;;;;;;4.80;4.17;;;21.80;99.90;;;;;;5152280;27;20614;-68
2023/06/16 07:22:08;;;;;;;5.10;3.87;;;21.80;99.90;;;;;;5152871;27;20184;-68
2023/06/16 07:24:33;;;;;;;12.17;4.53;;;21.80;99.90;;;;;;5152827;27;20653;-68
2023/06/16 07:27:01;;;;;;;6.37;4.77;;;21.90;99.90;;;;;;5152979;27;20257;-68
2023/06/16 07:29:27;;;;;;;4.63;4.00;;;21.90;99.90;;;;;;5153025;27;20201;-68
2023/06/16 07:31:53;;;;;;;5.73;4.40;;;22.00;99.90;;;;;;5153065;27;20419;-69
2023/06/16 07:34:19;;;;;;;4.57;3.70;;;22.00;99.30;;;;;;5153011;27;20417;-69
2023/06/16 07:36:44;;;;;;;9.23;3.90;;;22.00;99.60;;;;;;5153178;27;20187;-69
2023/06/16 07:39:10;;;;;;;5.50;3.90;;;22.10;99.90;;;;;;5133980;27;20444;-68
2023/06/16 07:41:37;;;;;;;6.40;3.73;;;22.20;99.90;;;;;;5152153;27;20187;-68
2023/06/16 07:44:02;;;;;;;6.33;3.63;;;22.30;99.90;;;;;;5152087;27;20225;-69
2023/06/16 07:46:28;;;;;;;5.40;4.40;;;22.30;99.90;;;;;;5132931;27;20880;-69
2023/06/16 07:48:54;;;;;;;4.97;4.33;;;22.40;99.90;;;;;;5151696;27;20196;-69
2023/06/16 07:51:22;;;;;;;6.23;3.80;;;22.40;99.90;;;;;;5151891;27;20179;-69
2023/06/16 07:53:48;;;;;;;9.33;4.13;;;22.50;99.90;;;;;;5151837;27;20186;-69
2023/06/16 07:56:15;;;;;;;7.97;3.70;;;22.60;99.90;;;;;;5152129;27;20453;-69
2023/06/16 07:58:40;;;;;;;8.93;4.43;;;22.70;98.90;;;;;;5151830;27;20510;-69
2023/06/16 08:01:06;;;;;;;7.43;4.20;;;22.80;99.40;;;;;;5151737;27;20911;-69
2023/06/16 08:03:32;;;;;;;7.87;4.50;;;22.90;99.90;;;;;;5133163;27;20181;-70
2023/06/16 08:05:57;;;;;;;6.90;4.60;;;22.90;99.90;;;;;;5151734;27;20996;-69
2023/06/16 08:08:26;;;;;;;5.00;4.47;;;23.00;98.40;;;;;;5133176;27;20233;-68
2023/06/16 08:10:53;;;;;;;11.67;4.10;;;23.00;99.70;;;;;;5151690;27;20813;-67
2023/06/16 08:13:19;;;;;;;4.83;4.00;;;23.20;97.30;;;;;;5151439;27;20486;-69
2023/06/16 08:15:44;;;;;;;4.67;4.17;;;23.10;96.30;;;;;;5151217;27;20427;-68
2023/06/16 08:18:10;;;;;;;4.60;3.90;;;23.00;95.00;;;;;;5132321;27;20208;-68
2023/06/16 08:20:37;;;;;;;11.30;4.90;;;22.80;95.60;;;;;;5150417;27;20221;-68
2023/06/16 08:23:02;;;;;;;9.30;4.20;;;23.00;97.20;;;;;;5150345;27;20203;-68
2023/06/16 08:25:28;;;;;;;7.60;4.83;;;23.10;93.90;;;;;;5150956;27;20420;-68
2023/06/16 08:27:53;;;;;;;5.60;4.17;;;23.30;95.30;;;;;;5131416;27;20311;-68
2023/06/16 08:30:19;;;;;;;4.63;3.70;;;23.40;95.10;;;;;;5131970;27;20184;-69
2023/06/16 08:32:45;;;;;;;6.93;3.57;;;23.50;94.50;;;;;;5150767;27;20180;-68
2023/06/16 08:35:11;;;;;;;5.03;3.90;;;23.70;94.60;;;;;;5131499;27;20798;-68
2023/06/16 08:37:36;;;;;;;8.00;4.40;;;24.00;94.30;;;;;;5150713;27;20241;-68
2023/06/16 08:40:07;;;;;;;4.50;3.90;;;24.10;93.80;;;;;;5150681;27;20543;-68
2023/06/16 08:42:36;;;;;;;7.57;3.40;;;24.20;94.10;;;;;;5150846;27;20194;-68
2023/06/16 08:45:03;;;;;;;4.00;3.43;;;24.30;93.30;;;;;;5150676;27;20832;-68
2023/06/16 08:47:29;;;;;;;8.73;3.80;;;24.60;92.00;;;;;;5151190;27;20971;-69
2023/06/16 08:49:56;;;;;;;6.23;3.60;;;24.70;90.80;;;;;;5151053;27;20447;-70
2023/06/16 08:52:26;;;;;;;6.07;3.90;;;24.80;90.90;;;;;;5151202;27;20258;-69
2023/06/16 08:54:57;;;;;;;9.80;3.73;;;24.80;90.90;;;;;;5150745;27;20425;-69
2023/06/16 08:57:23;;;;;;;5.93;3.83;;;24.90;90.40;;;;;;5150739;27;20428;-69
2023/06/16 08:59:54;;;;;;;5.10;3.83;;;25.00;90.50;;;;;;5149969;27;20440;-71
2023/06/16 09:02:21;;;;;;;7.53;3.70;;;25.20;91.10;;;;;;5150738;27;20424;-71
2023/06/16 09:04:47;;;;;;;12.23;3.57;;;25.30;90.00;;;;;;5150281;27;20425;-69
2023/06/16 09:07:19;;;;;;;5.03;4.53;;;25.40;89.80;;;;;;5150423;27;20823;-68
2023/06/16 09:09:47;;;;;;;4.57;3.43;;;25.60;88.90;;;;;;5150328;27;20535;-68
2023/06/16 09:12:13;;;;;;;9.37;4.00;;;25.90;89.40;;;;;;5130980;27;21017;-68
2023/06/16 09:14:39;;;;;;;9.90;3.90;;;26.10;89.20;;;;;;5150589;27;20417;-68
2023/06/16 09:17:07;;;;;;;6.50;4.17;;;26.20;87.40;;;;;;5149721;27;20291;-69
2023/06/16 09:19:41;;;;;;;16.80;3.43;;;26.40;87.70;;;;;;5149955;27;20751;-68
2023/06/16 09:22:09;;;;;;;7.30;4.33;;;26.70;86.80;;;;;;5149375;27;20419;-68
2023/06/16 09:24:35;;;;;;;10.90;4.10;;;26.70;85.50;;;;;;5149818;27;20508;-68
2023/06/16 09:27:01;;;;;;;5.43;4.33;;;27.00;86.20;;;;;;5130560;27;21057;-69
2023/06/16 09:29:28;;;;;;;5.20;4.00;;;27.30;85.20;;;;;;5149312;27;20478;-68
2023/06/16 09:32:05;;;;;;;5.77;4.10;;;27.30;84.20;;;;;;5149235;27;20422;-68
2023/06/16 09:34:35;;;;;;;6.07;4.37;;;26.70;83.00;;;;;;5149278;27;20416;-69
2023/06/16 09:37:03;;;;;;;4.90;3.80;;;27.00;83.10;;;;;;5149889;27;20919;-68
2023/06/16 09:39:29;;;;;;;5.37;4.27;;;26.70;84.10;;;;;;5130543;27;20445;-69
2023/06/16 09:41:56;;;;;;;5.00;4.50;;;26.30;85.30;;;;;;5149265;27;20428;-69
2023/06/16 09:44:23;;;;;;;10.93;4.10;;;25.90;84.50;;;;;;5149305;27;20429;-69
2023/06/16 09:46:50;;;;;;;7.10;4.60;;;25.80;85.70;;;;;;5149475;27;21030;-70
2023/06/16 09:49:21;;;;;;;9.93;5.00;;;25.50;86.70;;;;;;5149379;27;20879;-69
2023/06/16 09:51:57;;;;;;;4.80;4.13;;;25.20;86.60;;;;;;5148519;27;20505;-69
2023/06/16 09:54:25;;;;;;;5.47;4.10;;;25.00;87.10;;;;;;5149407;27;20462;-68
2023/06/16 09:56:51;;;;;;;6.40;3.97;;;24.70;87.00;;;;;;5149218;27;20919;-69
2023/06/16 09:59:17;;;;;;;8.23;4.30;;;24.90;88.80;;;;;;5149115;27;20976;-69
2023/06/16 10:01:46;;;;;;;7.77;3.97;;;25.20;88.50;;;;;;5149311;27;20431;-69
2023/06/16 10:04:15;;;;;;;6.60;3.77;;;25.90;86.40;;;;;;5149136;27;20417;-69
2023/06/16 10:06:52;;;;;;;11.23;4.33;;;26.60;84.80;;;;;;5148585;27;20918;-69
2023/06/16 10:09:27;;;;;;;5.00;3.60;;;27.10;82.10;;;;;;5148281;27;20809;-69
2023/06/16 10:11:56;;;;;;;5.53;4.30;;;27.50;83.70;;;;;;5148621;27;20409;-69
2023/06/16 10:14:27;;;;;;;4.77;4.30;;;27.80;82.60;;;;;;5130109;27;20428;-69
2023/06/16 10:16:54;;;;;;;4.30;3.90;;;27.40;83.10;;;;;;5148461;27;20406;-69
2023/06/16 10:19:23;;;;;;;4.83;4.03;;;26.80;82.10;;;;;;5148655;27;20442;-69
2023/06/16 10:21:53;;;;;;;6.50;4.10;;;26.50;82.60;;;;;;5148642;27;20428;-68
2023/06/16 10:24:19;;;;;;;4.80;4.30;;;27.00;82.50;;;;;;5148692;27;20413;-68
2023/06/16 10:26:46;;;;;;;12.10;4.30;;;27.60;81.00;;;;;;5129916;27;20465;-68
2023/06/16 10:29:16;;;;;;;6.90;4.43;;;27.80;82.10;;;;;;5148556;27;20445;-68
2023/06/16 10:31:46;;;;;;;6.10;4.20;;;28.20;80.50;;;;;;5148543;27;20417;-69
2023/06/16 10:34:19;;;;;;;7.77;4.20;;;28.70;81.60;;;;;;5149045;27;20441;-68
2023/06/16 10:36:45;;;;;;;10.30;4.47;;;28.30;79.80;;;;;;5148803;27;20465;-68
2023/06/16 10:39:16;;;;;;;4.70;3.93;;;27.50;78.80;;;;;;5148773;27;20471;-68
2023/06/16 10:41:48;;;;;;;5.20;4.13;;;27.30;79.20;;;;;;5148812;27;20481;-68
2023/06/16 10:44:31;;;;;;;7.10;4.17;;;27.70;77.60;;;;;;5148973;27;20421;-68
2023/06/16 10:47:16;;;;;;;4.70;4.30;;;28.30;78.30;;;;;;5134300;27;20492;-68
2023/06/16 10:50:11;;;;;;;5.83;3.67;;;28.90;77.40;;;;;;5134640;27;20802;-68
2023/06/16 10:52:43;;;;;;;6.00;3.93;;;29.00;75.90;;;;;;5153502;27;21091;-68
2023/06/16 10:55:17;;;;;;;5.07;4.57;;;29.40;75.80;;;;;;5134091;27;20496;-68
2023/06/16 10:57:44;;;;;;;4.57;4.03;;;29.40;75.40;;;;;;5152468;27;20435;-68
2023/06/16 11:00:14;;;;;;;11.70;3.67;;;29.00;74.80;;;;;;5152492;27;20583;-69
2023/06/16 11:02:51;;;;;;;4.47;3.30;;;28.50;74.00;;;;;;5133850;27;20888;-69
2023/06/16 11:05:21;;;;;;;6.00;3.90;;;29.00;75.50;;;;;;5152371;27;20421;-69
2023/06/16 11:08:02;;;;;;;4.43;3.60;;;29.10;75.00;;;;;;5152550;27;20467;-69
2023/06/16 11:10:28;;;;;;;10.00;3.73;;;28.70;73.80;;;;;;5152015;27;20937;-69
2023/06/16 11:12:54;;;;;;;12.47;4.20;;;28.20;74.00;;;;;;5152134;27;20413;-69
2023/06/16 11:15:20;;;;;;;4.07;3.63;;;28.50;73.80;;;;;;5133203;27;20185;-68
2023/06/16 11:17:49;;;;;;;4.63;3.33;;;28.80;74.50;;;;;;5151705;27;20224;-69
2023/06/16 11:20:16;;;;;;;6.23;3.73;;;29.20;73.70;;;;;;5151641;27;20237;-69
2023/06/16 11:22:45;;;;;;;9.63;3.67;;;29.50;72.80;;;;;;5133012;27;20951;-68
2023/06/16 11:25:14;;;;;;;4.60;3.93;;;29.70;73.10;;;;;;5151605;27;20419;-69
2023/06/16 11:27:40;;;;;;;4.40;3.90;;;29.70;71.80;;;;;;5151216;27;20989;-68
2023/06/16 11:30:06;;;;;;;8.37;4.70;;;30.00;71.90;;;;;;5151334;27;20418;-68
2023/06/16 11:32:34;;;;;;;3.97;3.47;;;30.50;71.90;;;;;;5151380;27;20425;-69
2023/06/16 11:35:00;;;;;;;6.50;4.10;;;30.60;72.20;;;;;;5151440;27;20524;-67
2023/06/16 11:37:50;;;;;;;9.00;3.60;;;30.50;71.20;;;;;;5132725;27;20776;-68
2023/06/16 11:40:28;;;;;;;6.40;3.97;;;30.40;70.30;;;;;;5151452;27;20923;-69
2023/06/16 11:42:59;;;;;;;4.80;3.97;;;29.90;72.30;;;;;;5151395;27;20466;-69
2023/06/16 11:45:30;;;;;;;5.73;4.10;;;29.10;71.00;;;;;;5151165;27;20914;-68
2023/06/16 11:47:57;;;;;;;14.50;5.20;;;29.50;71.30;;;;;;5132157;27;20493;-68
2023/06/16 11:50:23;;;;;;;11.00;3.80;;;29.90;71.00;;;;;;5150839;27;20493;-68
2023/06/16 11:52:50;;;;;;;4.83;3.90;;;30.10;72.10;;;;;;5132223;27;20467;-67
2023/06/16 11:55:16;;;;;;;5.53;4.43;;;30.30;71.60;;;;;;5150673;27;20974;-69
2023/06/16 11:57:43;;;;;;;6.33;3.83;;;30.50;71.00;;;;;;5131977;27;20867;-68
2023/06/16 12:00:10;;;;;;;5.47;4.27;;;30.80;70.80;;;;;;5150828;27;20411;-68
2023/06/16 12:02:37;;;;;;;4.13;3.83;;;30.90;71.00;;;;;;5151050;27;20417;-68
2023/06/16 12:05:10;;;;;;;4.90;3.90;;;30.70;69.70;;;;;;5150842;27;21034;-68
2023/06/16 12:07:37;;;;;;;13.30;4.10;;;30.50;69.60;;;;;;5150758;27;20586;-69
2023/06/16 12:10:03;;;;;;;16.53;5.20;;;30.60;69.90;;;;;;5150556;27;20787;-68
2023/06/16 12:12:30;;;;;;;5.07;4.07;;;30.40;70.70;;;;;;5150664;27;20418;-68
2023/06/16 12:14:58;;;;;;;4.80;3.70;;;30.50;69.60;;;;;;5131577;27;20554;-68
2023/06/16 12:17:24;;;;;;;5.43;4.40;;;30.70;70.50;;;;;;5150337;27;20426;-69
2023/06/16 12:19:52;;;;;;;6.90;3.57;;;31.00;68.60;;;;;;5150730;27;20911;-68
2023/06/16 12:22:17;;;;;;;6.57;4.90;;;30.90;68.10;;;;;;5150495;27;20416;-67
2023/06/16 12:24:43;;;;;;;4.60;4.20;;;31.00;68.90;;;;;;5150304;27;20425;-69
2023/06/16 12:27:24;;;;;;;8.97;3.83;;;31.20;68.90;;;;;;5150192;27;20577;-69
2023/06/16 12:29:58;;;;;;;6.43;5.60;;;31.10;67.90;;;;;;5150271;27;20295;-68
2023/06/16 12:32:32;;;;;;;6.17;4.80;;;31.10;68.30;;;;;;5150408;27;20986;-68
2023/06/16 12:34:58;;;;;;;7.10;4.33;;;31.00;68.80;;;;;;5131607;27;20409;-68
2023/06/16 12:37:28;;;;;;;6.83;4.93;;;30.80;67.50;;;;;;5150510;27;20474;-68
2023/06/16 12:40:27;;;;;;;4.70;4.00;;;30.70;68.60;;;;;;5131671;27;20441;-68
2023/06/16 12:42:53;;;;;;;5.57;3.90;;;30.70;67.60;;;;;;5135076;27;20413;-68
2023/06/16 12:45:19;;;;;;;4.50;4.10;;;30.70;68.10;;;;;;5150503;27;20422;-68
2023/06/16 12:47:44;;;;;;;8.43;4.37;;;30.80;67.90;;;;;;5150422;27;20255;-69